Canberra International Airport
YSCB : now visible

Airfield :











YOU CAN JOIN US ON...

 
LOGIN :

Register | Disclaimer

   EN    FR    IT 

 









Legend :    VFR   Marginal VFR   IFR   Intensive IFR   Very Intensive IFR
Visi :
Ceiling :
>= 8 km
>= 3000ft
5 to 8 km
1000 to 3000 ft
1500m to 5 km
500 to 1000 ft
800 to 1500m
200 to 500 ft
< 800m
< 200 ft
Symbols :   Thunderstorms  Fog  Heavy snow  Heavy precipitations  Wind > 20 kt






- Airport Elevation : 1886 ft
- IATA code : CBR


YSCB - Canberra International

CURRENT METAR :
  • 162130Z AUTO 36005KT 7000 // OVC003 02/02 Q1021 RF00/0/002/8

EXPIRED METARs :
  • 162120Z AUTO 36005KT 1000 BR OVC002 02/02 Q1021 RF00/0/002/8
  • 162100Z AUTO 01004KT 0500 R35/1200D FG OVC003 02/02 Q1021
  • 162031Z AUTO 01004KT 0800 FG OVC003 02/02 Q1020 RF00/0/002/8
  • 162006Z AUTO 02005KT 1000 BR OVC002 02/01 Q1020 RF00/0/002/8
  • 162000Z AUTO 02005KT 0700 FG OVC003 02/01 Q1019 RF00/0/002/8
  • 161947Z AUTO 36006KT 1000 BR OVC003 01/01 Q1019 RF00/0/002/8
  • 161930Z AUTO 36006KT 0600 FG OVC002 02/01 Q1019 RF00/0/002/8
  • 161900Z AUTO 35005KT 0400 R35/1400U FG OVC002 02/02 Q1018
  • 161854Z AUTO 36005KT 0200 R35/0800V1500U FG OVC001 02/02 Q1018

TAF AMD TAF YSCB
Valid from the 16 at 20:00 until the 17 at 18:00 UTC


162024Z 1620/1718 VRB03KT 0500 FG BKN001
FM162300 32008KT 9999 NSW BKN006
FM170200 33012KT CAVOK
FM171500 33008KT 9999 FEW010
YMMM FIR / Oceania



MET'MAP, your aeronautical weather chart ! - Copyright ORBIFLY December 2007 - Disclaimer

ORBIFLY MET'MAP TEAM :

Programming & Development : Alexandra Zaïnal
Original concept : Baudouin d'Aumeries
Technical & hardware support : Manuel Goepfert
Assistance : Marc-Olivier Méhu




SOURCES & CREDITS :

   NOAA       Earth
Advisory